Time;durP1;ratioP1;P1;durP2;ratioP2;P2;SDS_P1;SDS_P2;PMS_P1;PMS_P2;Temp;Humidity;BMP_temperature;BMP_pressure;BME280_temperature;BME280_humidity;BME280_pressure;Samples;Min_cycle;Max_cycle;Signal;HPM_P1;HPM_P2
2023/01/13 00:01:48;;;;;;;3.10;1.10;;;;;;;;;;5026307;28;20198;-75
2023/01/13 00:04:14;;;;;;;2.63;1.20;;;;;;;;;;5029451;28;20205;-75
2023/01/13 00:06:41;;;;;;;2.00;1.10;;;;;;;;;;5029866;28;20202;-75
2023/01/13 00:09:07;;;;;;;2.73;1.20;;;;;;;;;;5027526;28;20190;-75
2023/01/13 00:11:33;;;;;;;2.23;1.17;;;;;;;;;;5028023;28;20188;-75
2023/01/13 00:13:59;;;;;;;4.40;1.37;;;;;;;;;;5025741;28;20680;-75
2023/01/13 00:16:25;;;;;;;3.00;1.37;;;;;;;;;;5022948;28;20217;-75
2023/01/13 00:18:51;;;;;;;3.60;1.30;;;;;;;;;;5021900;28;20170;-75
2023/01/13 00:21:19;;;;;;;2.73;1.20;;;;;;;;;;5026842;28;20190;-75
2023/01/13 00:23:45;;;;;;;3.27;1.20;;;;;;;;;;5024299;28;20183;-74
2023/01/13 00:26:13;;;;;;;2.40;1.10;;;;;;;;;;5014284;28;20206;-75
2023/01/13 00:28:39;;;;;;;1.77;1.00;;;;;;;;;;5027991;28;20178;-75
2023/01/13 00:31:07;;;;;;;2.03;1.03;;;;;;;;;;5028755;28;20175;-75
2023/01/13 00:33:33;;;;;;;2.23;1.20;;;;;;;;;;5026927;28;20202;-74
2023/01/13 00:36:00;;;;;;;3.90;1.30;;;;;;;;;;5023571;28;20582;-74
2023/01/13 00:38:26;;;;;;;4.47;1.30;;;;;;;;;;5026431;28;20310;-75
2023/01/13 00:40:59;;;;;;;3.83;1.30;;;;;;;;;;5031708;28;20705;-75
2023/01/13 00:43:26;;;;;;;4.10;1.10;;;;;;;;;;5022155;28;20673;-75
2023/01/13 00:45:53;;;;;;;2.83;1.10;;;;;;;;;;5029095;28;20245;-75
2023/01/13 00:48:20;;;;;;;3.53;1.40;;;;;;;;;;5027249;28;20186;-75
2023/01/13 00:50:46;;;;;;;2.30;1.30;;;;;;;;;;5027258;28;20178;-75
2023/01/13 00:53:13;;;;;;;2.03;1.17;;;;;;;;;;5027161;28;20174;-75
2023/01/13 00:55:39;;;;;;;3.00;1.30;;;;;;;;;;5027718;28;20203;-74
2023/01/13 00:58:05;;;;;;;3.53;1.20;;;;;;;;;;5033268;28;20209;-74
2023/01/13 01:00:32;;;;;;;3.73;1.40;;;;;;;;;;5026261;28;20650;-75
2023/01/13 01:02:58;;;;;;;2.43;1.23;;;;;;;;;;5024533;28;20705;-74
2023/01/13 01:05:24;;;;;;;3.50;1.07;;;;;;;;;;5019371;28;20238;-75
2023/01/13 01:07:50;;;;;;;1.97;1.10;;;;;;;;;;5028174;28;20198;-75
2023/01/13 01:10:16;;;;;;;2.03;1.20;;;;;;;;;;5023803;28;20201;-74
2023/01/13 01:12:43;;;;;;;2.90;1.20;;;;;;;;;;5022259;28;20282;-75
2023/01/13 01:15:09;;;;;;;3.93;1.20;;;;;;;;;;5029546;28;20230;-75
2023/01/13 01:17:36;;;;;;;2.13;1.30;;;;;;;;;;5025810;28;20202;-75
2023/01/13 01:20:03;;;;;;;3.13;1.17;;;;;;;;;;5022660;28;20235;-75
2023/01/13 01:22:29;;;;;;;2.97;1.20;;;;;;;;;;5025396;28;20666;-75
2023/01/13 01:24:55;;;;;;;3.10;1.40;;;;;;;;;;5015865;28;20252;-75
2023/01/13 01:27:22;;;;;;;2.37;1.20;;;;;;;;;;5027654;28;20235;-75
2023/01/13 01:29:48;;;;;;;3.80;1.27;;;;;;;;;;5026918;28;20191;-75
2023/01/13 01:32:14;;;;;;;3.37;1.27;;;;;;;;;;5025507;28;20206;-75
2023/01/13 01:34:40;;;;;;;3.80;1.30;;;;;;;;;;5027810;28;20238;-75
2023/01/13 01:37:06;;;;;;;3.20;1.23;;;;;;;;;;5023079;28;20233;-75
2023/01/13 01:39:32;;;;;;;3.00;1.20;;;;;;;;;;5019933;28;20190;-75
2023/01/13 01:44:59;;;;;;;3.27;1.10;;;;;;;;;;5027974;28;20205;-75
2023/01/13 01:47:26;;;;;;;4.37;1.17;;;;;;;;;;5020373;28;20587;-75
2023/01/13 01:49:52;;;;;;;3.47;1.10;;;;;;;;;;5024552;28;20243;-75
2023/01/13 01:52:23;;;;;;;2.97;1.20;;;;;;;;;;5009373;28;20186;-74
2023/01/13 01:54:52;;;;;;;1.70;0.83;;;;;;;;;;5024466;28;20585;-75
2023/01/13 01:57:21;;;;;;;2.47;1.10;;;;;;;;;;5022729;28;20226;-75
2023/01/13 01:59:48;;;;;;;3.50;1.20;;;;;;;;;;5039218;28;20191;-75
2023/01/13 02:02:14;;;;;;;2.17;1.20;;;;;;;;;;5020947;28;20182;-74
2023/01/13 02:04:49;;;;;;;2.20;1.13;;;;;;;;;;5024893;28;20186;-75
2023/01/13 02:07:24;;;;;;;2.77;1.23;;;;;;;;;;5022364;28;20202;-75
2023/01/13 02:09:51;;;;;;;1.43;1.10;;;;;;;;;;5023603;28;20213;-75
2023/01/13 02:12:29;;;;;;;2.43;1.20;;;;;;;;;;5022359;28;20188;-75
2023/01/13 02:15:04;;;;;;;2.40;1.10;;;;;;;;;;5025295;28;20711;-75
2023/01/13 02:17:33;;;;;;;2.47;1.23;;;;;;;;;;5022603;28;20194;-73
2023/01/13 02:20:00;;;;;;;3.20;1.10;;;;;;;;;;5024072;28;20185;-75
2023/01/13 02:22:41;;;;;;;1.70;1.00;;;;;;;;;;5023690;28;20200;-75
2023/01/13 02:25:07;;;;;;;3.03;1.07;;;;;;;;;;5023914;28;21062;-75
2023/01/13 02:27:40;;;;;;;2.63;1.20;;;;;;;;;;5021835;28;20537;-75
2023/01/13 02:33:09;;;;;;;1.70;1.00;;;;;;;;;;5007641;28;20522;-74
2023/01/13 02:35:50;;;;;;;1.80;1.10;;;;;;;;;;5025000;28;20312;-74
2023/01/13 02:38:19;;;;;;;3.07;1.17;;;;;;;;;;5024603;28;20186;-75
2023/01/13 02:40:45;;;;;;;2.40;1.20;;;;;;;;;;5030195;28;20721;-74
2023/01/13 02:46:16;;;;;;;2.63;1.30;;;;;;;;;;5029582;28;20626;-75
2023/01/13 02:48:44;;;;;;;2.17;1.30;;;;;;;;;;5027680;28;20265;-75
2023/01/13 02:51:13;;;;;;;4.17;1.40;;;;;;;;;;5027134;28;20581;-75
2023/01/13 02:53:45;;;;;;;2.70;1.30;;;;;;;;;;5025129;28;20178;-74
2023/01/13 02:56:12;;;;;;;4.77;1.40;;;;;;;;;;5036060;28;20237;-75
2023/01/13 02:58:39;;;;;;;2.27;1.10;;;;;;;;;;5026639;28;20542;-75
2023/01/13 03:01:06;;;;;;;2.20;1.10;;;;;;;;;;5028528;28;20711;-75
2023/01/13 03:03:32;;;;;;;4.00;1.30;;;;;;;;;;5025075;28;20170;-75
2023/01/13 03:06:13;;;;;;;3.23;1.10;;;;;;;;;;5027453;28;20238;-76
2023/01/13 03:08:50;;;;;;;1.87;1.10;;;;;;;;;;5028982;28;20182;-75
2023/01/13 03:11:17;;;;;;;1.17;1.00;;;;;;;;;;5026076;28;20186;-75
2023/01/13 03:13:49;;;;;;;1.70;1.00;;;;;;;;;;5029185;28;20550;-75
2023/01/13 03:16:34;;;;;;;1.47;1.00;;;;;;;;;;5029712;28;20296;-75
2023/01/13 03:19:20;;;;;;;1.50;0.90;;;;;;;;;;5027383;28;20189;-75
2023/01/13 03:22:01;;;;;;;2.40;1.10;;;;;;;;;;5022087;28;20202;-75
2023/01/13 03:24:50;;;;;;;2.27;1.00;;;;;;;;;;5022920;28;20183;-75
2023/01/13 03:27:28;;;;;;;2.90;1.00;;;;;;;;;;5019358;28;20208;-74
2023/01/13 03:30:08;;;;;;;4.97;1.20;;;;;;;;;;5027508;28;20190;-74
2023/01/13 03:32:46;;;;;;;2.87;1.20;;;;;;;;;;5030483;28;20189;-74
2023/01/13 03:35:30;;;;;;;1.30;0.90;;;;;;;;;;5029796;28;20202;-75
2023/01/13 03:37:59;;;;;;;1.67;1.00;;;;;;;;;;5028980;28;20190;-75
2023/01/13 03:40:28;;;;;;;2.20;1.00;;;;;;;;;;5025241;28;20202;-75
2023/01/13 03:45:48;;;;;;;2.03;1.20;;;;;;;;;;5021075;28;20281;-75
2023/01/13 03:48:16;;;;;;;2.47;1.10;;;;;;;;;;5025772;28;20183;-75
2023/01/13 03:50:53;;;;;;;1.23;0.90;;;;;;;;;;5027164;28;20283;-75
2023/01/13 03:53:21;;;;;;;3.63;1.13;;;;;;;;;;5027348;28;20205;-75
2023/01/13 03:55:49;;;;;;;3.13;1.00;;;;;;;;;;5023064;28;20210;-75
2023/01/13 03:58:15;;;;;;;0.93;0.83;;;;;;;;;;5021335;28;20197;-75
2023/01/13 04:01:02;;;;;;;2.40;1.00;;;;;;;;;;5019929;28;20628;-75
2023/01/13 04:03:39;;;;;;;2.90;1.10;;;;;;;;;;5008501;28;20256;-74
2023/01/13 04:06:14;;;;;;;3.43;1.13;;;;;;;;;;5027344;28;20206;-75
2023/01/13 04:08:44;;;;;;;1.57;1.03;;;;;;;;;;5030933;28;20186;-76
2023/01/13 04:11:14;;;;;;;1.60;1.00;;;;;;;;;;5028641;28;20754;-75
2023/01/13 04:13:41;;;;;;;1.87;1.07;;;;;;;;;;5020835;28;20176;-74
2023/01/13 04:16:08;;;;;;;1.30;1.00;;;;;;;;;;5024261;28;20301;-75
2023/01/13 04:18:37;;;;;;;2.30;1.00;;;;;;;;;;5027645;28;20178;-75
2023/01/13 04:21:03;;;;;;;2.83;1.10;;;;;;;;;;5032374;28;20542;-75
2023/01/13 04:23:30;;;;;;;1.87;1.00;;;;;;;;;;5029172;28;20270;-75
2023/01/13 04:25:56;;;;;;;3.63;1.13;;;;;;;;;;5024273;28;20203;-75
2023/01/13 04:28:22;;;;;;;4.07;2.70;;;;;;;;;;5028172;28;20179;-75
2023/01/13 04:30:49;;;;;;;2.50;1.30;;;;;;;;;;5029760;28;20645;-76
2023/01/13 04:33:15;;;;;;;2.20;1.00;;;;;;;;;;5028912;28;20183;-76
2023/01/13 04:35:42;;;;;;;2.47;1.00;;;;;;;;;;5019671;28;20214;-76
2023/01/13 04:38:09;;;;;;;1.60;0.90;;;;;;;;;;5021724;28;20186;-75
2023/01/13 04:40:35;;;;;;;1.63;1.00;;;;;;;;;;5027279;28;20558;-75
2023/01/13 04:43:02;;;;;;;1.97;0.90;;;;;;;;;;5028052;28;20195;-74
2023/01/13 04:45:28;;;;;;;2.87;1.00;;;;;;;;;;5027389;28;20224;-76
2023/01/13 04:47:54;;;;;;;1.93;0.90;;;;;;;;;;5021456;28;20516;-75
2023/01/13 04:50:21;;;;;;;1.77;0.90;;;;;;;;;;5028354;28;20265;-74
2023/01/13 04:52:48;;;;;;;2.67;0.90;;;;;;;;;;5025287;28;20197;-75
2023/01/13 04:55:14;;;;;;;1.17;0.87;;;;;;;;;;5023825;28;20284;-75
2023/01/13 04:57:41;;;;;;;1.10;0.80;;;;;;;;;;5026830;28;20183;-76
2023/01/13 05:00:08;;;;;;;1.60;0.97;;;;;;;;;;5015685;28;20182;-75
2023/01/13 05:02:34;;;;;;;2.13;1.00;;;;;;;;;;5022461;28;20265;-75
2023/01/13 05:05:00;;;;;;;2.67;1.00;;;;;;;;;;5023644;28;20794;-74
2023/01/13 05:07:27;;;;;;;2.03;0.90;;;;;;;;;;5026773;28;20723;-75
2023/01/13 05:09:53;;;;;;;3.47;1.00;;;;;;;;;;5025931;28;20182;-75
2023/01/13 05:17:49;;;;;;;1.97;0.90;;;;;;;;;;5003815;28;20199;-75
2023/01/13 05:20:15;;;;;;;0.80;0.80;;;;;;;;;;5027480;28;20277;-75
2023/01/13 05:25:27;;;;;;;1.30;0.93;;;;;;;;;;5021431;28;20194;-75
2023/01/13 05:27:54;;;;;;;1.27;0.90;;;;;;;;;;5023683;28;20191;-75
2023/01/13 05:30:24;;;;;;;3.03;0.90;;;;;;;;;;5026917;28;20182;-76
2023/01/13 05:32:50;;;;;;;2.50;0.97;;;;;;;;;;5005004;28;20790;-76
2023/01/13 05:35:17;;;;;;;2.03;0.90;;;;;;;;;;5022230;28;20224;-75
2023/01/13 05:37:43;;;;;;;1.00;0.90;;;;;;;;;;5008221;28;20182;-74
2023/01/13 05:43:25;;;;;;;3.23;0.83;;;;;;;;;;5026511;28;20185;-74
2023/01/13 05:45:53;;;;;;;1.10;0.80;;;;;;;;;;5016156;28;20326;-74
2023/01/13 05:48:20;;;;;;;1.23;0.80;;;;;;;;;;5027841;28;20193;-75
2023/01/13 05:50:48;;;;;;;1.20;0.73;;;;;;;;;;5026038;28;20623;-75
2023/01/13 05:53:15;;;;;;;1.23;0.80;;;;;;;;;;5021152;28;20213;-75
2023/01/13 05:55:41;;;;;;;2.87;0.90;;;;;;;;;;5024297;28;20222;-75
2023/01/13 05:58:09;;;;;;;2.53;1.10;;;;;;;;;;5022791;28;20270;-75
2023/01/13 06:00:35;;;;;;;2.50;0.90;;;;;;;;;;5025047;28;20214;-74
2023/01/13 06:03:02;;;;;;;3.23;0.80;;;;;;;;;;5022561;28;20178;-75
2023/01/13 06:05:28;;;;;;;1.83;0.97;;;;;;;;;;5025971;28;20713;-74
2023/01/13 06:07:58;;;;;;;0.83;0.70;;;;;;;;;;5025988;28;20232;-75
2023/01/13 06:10:25;;;;;;;2.97;0.97;;;;;;;;;;5026016;28;20581;-75
2023/01/13 06:12:51;;;;;;;2.07;0.90;;;;;;;;;;5021492;28;20182;-76
2023/01/13 06:15:17;;;;;;;1.60;0.90;;;;;;;;;;5022320;28;20226;-76
2023/01/13 06:17:43;;;;;;;2.13;1.00;;;;;;;;;;5025865;28;20175;-78
2023/01/13 06:20:10;;;;;;;2.53;0.97;;;;;;;;;;5023894;28;20265;-76
2023/01/13 06:22:38;;;;;;;2.37;0.97;;;;;;;;;;5024746;28;20749;-76
2023/01/13 06:25:10;;;;;;;3.73;1.03;;;;;;;;;;5024240;28;20388;-76
2023/01/13 06:27:36;;;;;;;1.57;1.03;;;;;;;;;;5028660;28;20246;-76
2023/01/13 06:30:03;;;;;;;3.17;1.00;;;;;;;;;;5026711;28;20251;-76
2023/01/13 06:32:33;;;;;;;1.93;0.90;;;;;;;;;;5027055;28;20205;-79
2023/01/13 06:35:02;;;;;;;2.23;0.90;;;;;;;;;;5017462;28;20361;-76
2023/01/13 06:37:29;;;;;;;1.50;0.83;;;;;;;;;;5022605;28;20214;-76
2023/01/13 06:39:57;;;;;;;1.53;1.00;;;;;;;;;;5027260;28;20666;-76
2023/01/13 06:45:10;;;;;;;2.63;0.90;;;;;;;;;;5019940;28;20226;-74
2023/01/13 06:47:36;;;;;;;2.77;1.00;;;;;;;;;;5035240;28;20491;-77
2023/01/13 06:50:03;;;;;;;1.10;0.80;;;;;;;;;;5031499;28;20211;-79
2023/01/13 06:52:29;;;;;;;3.00;1.00;;;;;;;;;;5034637;28;20186;-78
2023/01/13 06:54:56;;;;;;;1.63;1.07;;;;;;;;;;5028872;28;20578;-79
2023/01/13 06:57:22;;;;;;;1.70;0.87;;;;;;;;;;5008866;28;20276;-77
2023/01/13 06:59:48;;;;;;;1.23;0.70;;;;;;;;;;5028793;28;20339;-80
2023/01/13 07:02:14;;;;;;;0.97;0.70;;;;;;;;;;5025791;28;20185;-75
2023/01/13 07:04:41;;;;;;;3.67;1.07;;;;;;;;;;5025022;28;20270;-75
2023/01/13 07:07:07;;;;;;;1.53;0.70;;;;;;;;;;5023361;28;20178;-75
2023/01/13 07:09:33;;;;;;;1.50;0.70;;;;;;;;;;5023023;28;20187;-75
2023/01/13 07:11:59;;;;;;;0.67;0.67;;;;;;;;;;5026875;28;20186;-75
2023/01/13 07:17:10;;;;;;;1.80;0.80;;;;;;;;;;5026356;28;20222;-75
2023/01/13 07:19:37;;;;;;;1.30;0.90;;;;;;;;;;5026974;28;20178;-75
2023/01/13 07:22:03;;;;;;;2.30;0.90;;;;;;;;;;5026462;28;20266;-75
2023/01/13 07:24:29;;;;;;;4.33;2.43;;;;;;;;;;5031093;28;20254;-75
2023/01/13 07:26:55;;;;;;;6.93;3.23;;;;;;;;;;5030128;28;20716;-75
2023/01/13 07:29:21;;;;;;;2.93;1.77;;;;;;;;;;5030901;28;20213;-75
2023/01/13 07:31:48;;;;;;;1.43;1.13;;;;;;;;;;5034648;28;20281;-75
2023/01/13 07:34:14;;;;;;;2.80;1.20;;;;;;;;;;5029562;28;20807;-75
2023/01/13 07:36:40;;;;;;;2.83;1.23;;;;;;;;;;5028945;28;20210;-75
2023/01/13 07:39:07;;;;;;;1.53;1.10;;;;;;;;;;5026936;28;20222;-75
2023/01/13 07:44:18;;;;;;;2.47;0.97;;;;;;;;;;5027569;28;20182;-75
2023/01/13 07:46:44;;;;;;;1.10;0.80;;;;;;;;;;5026601;28;20574;-78
2023/01/13 07:49:10;;;;;;;2.27;0.90;;;;;;;;;;5029325;28;20794;-74
2023/01/13 07:51:39;;;;;;;1.50;0.90;;;;;;;;;;5029467;28;20183;-75
2023/01/13 07:54:05;;;;;;;2.47;1.00;;;;;;;;;;5030139;28;20273;-75
2023/01/13 07:56:31;;;;;;;1.47;0.90;;;;;;;;;;5029554;28;20210;-75
2023/01/13 07:59:01;;;;;;;2.23;1.07;;;;;;;;;;5012485;28;20281;-75
2023/01/13 08:01:28;;;;;;;2.10;0.97;;;;;;;;;;5029686;28;20233;-75
2023/01/13 08:03:55;;;;;;;3.37;1.00;;;;;;;;;;5042610;28;20188;-75
2023/01/13 08:06:21;;;;;;;1.97;0.90;;;;;;;;;;5039258;28;20564;-75
2023/01/13 08:08:47;;;;;;;1.73;1.00;;;;;;;;;;5046325;28;20193;-74
2023/01/13 08:11:13;;;;;;;3.13;1.10;;;;;;;;;;5032839;28;20184;-74
2023/01/13 08:13:39;;;;;;;3.37;1.30;;;;;;;;;;5029573;28;20213;-75
2023/01/13 08:16:07;;;;;;;3.50;1.10;;;;;;;;;;5029403;28;20616;-75
2023/01/13 08:18:33;;;;;;;3.70;1.30;;;;;;;;;;5029797;28;20167;-75
2023/01/13 08:21:04;;;;;;;4.67;1.47;;;;;;;;;;5027673;28;20615;-74
2023/01/13 08:23:30;;;;;;;2.63;1.00;;;;;;;;;;5012646;28;20217;-75
2023/01/13 08:26:04;;;;;;;6.13;1.50;;;;;;;;;;5027515;28;20238;-75
2023/01/13 08:28:31;;;;;;;4.23;1.17;;;;;;;;;;5029650;28;20158;-74
2023/01/13 08:31:01;;;;;;;3.03;1.30;;;;;;;;;;5012420;28;20202;-75
2023/01/13 08:33:28;;;;;;;3.53;1.17;;;;;;;;;;5023778;28;20233;-75
2023/01/13 08:35:55;;;;;;;4.03;1.10;;;;;;;;;;5026817;28;20206;-75
2023/01/13 08:38:21;;;;;;;2.97;1.43;;;;;;;;;;5030566;28;20205;-75
2023/01/13 08:40:47;;;;;;;2.87;1.07;;;;;;;;;;5027301;28;20240;-76
2023/01/13 08:43:13;;;;;;;1.50;1.07;;;;;;;;;;5027104;28;20182;-75
2023/01/13 08:45:39;;;;;;;2.83;1.20;;;;;;;;;;5027832;28;20275;-75
2023/01/13 08:48:06;;;;;;;3.80;1.30;;;;;;;;;;5028394;28;20282;-75
2023/01/13 08:50:32;;;;;;;2.47;1.00;;;;;;;;;;5033424;28;20265;-75
2023/01/13 08:52:58;;;;;;;3.13;0.90;;;;;;;;;;5037207;28;20193;-75
2023/01/13 08:55:24;;;;;;;3.67;1.30;;;;;;;;;;5031030;28;20288;-75
2023/01/13 08:57:51;;;;;;;3.47;1.00;;;;;;;;;;5029688;28;20206;-75
2023/01/13 09:00:18;;;;;;;3.93;2.47;;;;;;;;;;5027542;28;20182;-75
2023/01/13 09:02:44;;;;;;;4.53;2.10;;;;;;;;;;5027302;28;20237;-75
2023/01/13 09:05:10;;;;;;;5.43;3.70;;;;;;;;;;5028880;28;20908;-75
2023/01/13 09:07:37;;;;;;;4.00;2.10;;;;;;;;;;5027490;28;20190;-75
2023/01/13 09:10:06;;;;;;;1.87;1.40;;;;;;;;;;5029051;28;20236;-75
2023/01/13 09:15:20;;;;;;;4.07;1.50;;;;;;;;;;5029448;28;20206;-75
2023/01/13 09:17:47;;;;;;;3.90;1.77;;;;;;;;;;5010494;28;20292;-75
2023/01/13 09:20:13;;;;;;;3.20;1.40;;;;;;;;;;5026843;28;20199;-75
2023/01/13 09:22:40;;;;;;;3.70;1.37;;;;;;;;;;5026329;28;20182;-76
2023/01/13 09:25:06;;;;;;;3.53;1.23;;;;;;;;;;5026956;28;20201;-75
2023/01/13 09:27:32;;;;;;;3.30;1.20;;;;;;;;;;5026667;28;20193;-75
2023/01/13 09:29:58;;;;;;;3.97;1.50;;;;;;;;;;5027114;28;20309;-75
2023/01/13 09:32:25;;;;;;;4.33;1.53;;;;;;;;;;5022081;28;20685;-75
2023/01/13 09:35:00;;;;;;;3.13;1.30;;;;;;;;;;5013382;28;20670;-75
2023/01/13 09:37:31;;;;;;;2.40;1.20;;;;;;;;;;5025079;28;20249;-75
2023/01/13 09:39:57;;;;;;;3.07;1.10;;;;;;;;;;5026492;28;20193;-75
2023/01/13 09:45:11;;;;;;;3.57;1.17;;;;;;;;;;5026547;28;20210;-75
2023/01/13 09:47:37;;;;;;;1.80;1.00;;;;;;;;;;5025622;28;20179;-75
2023/01/13 09:50:09;;;;;;;2.07;1.00;;;;;;;;;;5026451;28;20190;-75
2023/01/13 09:52:36;;;;;;;4.43;1.43;;;;;;;;;;5025315;28;20225;-75
2023/01/13 09:55:09;;;;;;;3.40;1.10;;;;;;;;;;5027817;28;20210;-75
2023/01/13 09:57:36;;;;;;;3.43;1.50;;;;;;;;;;5025735;28;20202;-75
2023/01/13 10:00:05;;;;;;;3.40;1.33;;;;;;;;;;5009707;28;20324;-75
2023/01/13 10:02:43;;;;;;;4.30;1.30;;;;;;;;;;5013789;28;20217;-75
2023/01/13 10:05:13;;;;;;;4.90;1.50;;;;;;;;;;5027565;28;20194;-75
2023/01/13 10:07:46;;;;;;;3.27;1.73;;;;;;;;;;5025308;28;20281;-75
2023/01/13 10:10:17;;;;;;;5.30;1.60;;;;;;;;;;5028545;28;20677;-75
2023/01/13 10:15:29;;;;;;;2.33;1.20;;;;;;;;;;5011284;28;20210;-75
2023/01/13 10:17:58;;;;;;;6.47;1.37;;;;;;;;;;5025487;28;20190;-75
2023/01/13 10:20:33;;;;;;;2.57;1.27;;;;;;;;;;5025222;28;20178;-75
2023/01/13 10:23:18;;;;;;;3.57;1.63;;;;;;;;;;5026907;28;20178;-75
2023/01/13 10:25:50;;;;;;;6.00;1.60;;;;;;;;;;5026039;28;20688;-75
2023/01/13 10:28:22;;;;;;;4.13;1.37;;;;;;;;;;5018463;28;20192;-75
2023/01/13 10:30:49;;;;;;;4.63;1.30;;;;;;;;;;5025609;28;20190;-75
2023/01/13 10:33:16;;;;;;;3.97;1.53;;;;;;;;;;5016222;28;20178;-75
2023/01/13 10:35:54;;;;;;;5.93;2.03;;;;;;;;;;5025672;28;20558;-75
2023/01/13 10:38:25;;;;;;;4.37;1.57;;;;;;;;;;5025956;28;20194;-75
2023/01/13 10:40:56;;;;;;;4.90;1.60;;;;;;;;;;5009217;28;20256;-75
2023/01/13 10:43:23;;;;;;;3.73;1.50;;;;;;;;;;5013055;28;20174;-75
2023/01/13 10:45:57;;;;;;;5.37;1.70;;;;;;;;;;5008328;28;20602;-75
2023/01/13 10:48:31;;;;;;;4.40;1.67;;;;;;;;;;5026028;28;20197;-75
2023/01/13 10:50:57;;;;;;;3.90;1.37;;;;;;;;;;5026567;28;20248;-75
2023/01/13 10:53:25;;;;;;;4.07;1.53;;;;;;;;;;5009134;28;20186;-75
2023/01/13 10:55:58;;;;;;;4.40;1.57;;;;;;;;;;5012938;28;20211;-75
2023/01/13 10:58:25;;;;;;;4.10;1.40;;;;;;;;;;5009751;28;20171;-75
2023/01/13 11:00:59;;;;;;;4.80;1.70;;;;;;;;;;5021868;28;20198;-75
2023/01/13 11:03:27;;;;;;;3.77;1.60;;;;;;;;;;5021792;28;20190;-75
2023/01/13 11:05:54;;;;;;;5.13;1.90;;;;;;;;;;5032845;28;20213;-75
2023/01/13 11:08:44;;;;;;;5.70;1.50;;;;;;;;;;5023487;28;20183;-75
2023/01/13 11:11:27;;;;;;;6.30;1.50;;;;;;;;;;5028085;28;20194;-75
2023/01/13 11:16:40;;;;;;;3.80;1.27;;;;;;;;;;5017107;28;20216;-75
2023/01/13 11:19:10;;;;;;;7.73;1.50;;;;;;;;;;5012187;28;20950;-75
2023/01/13 11:21:48;;;;;;;7.43;1.53;;;;;;;;;;5028488;28;20174;-75
2023/01/13 11:24:20;;;;;;;5.07;1.43;;;;;;;;;;5016600;28;20455;-75
2023/01/13 11:26:57;;;;;;;6.20;1.67;;;;;;;;;;5029942;28;20210;-75
2023/01/13 11:29:32;;;;;;;7.93;1.70;;;;;;;;;;5030175;28;20174;-75
2023/01/13 11:32:03;;;;;;;6.83;1.47;;;;;;;;;;5028157;28;20541;-75
2023/01/13 11:34:36;;;;;;;4.93;1.50;;;;;;;;;;5030739;28;20654;-75
2023/01/13 11:37:06;;;;;;;8.47;1.67;;;;;;;;;;5029749;28;20272;-75
2023/01/13 11:39:45;;;;;;;5.93;1.43;;;;;;;;;;5018758;28;20183;-75
2023/01/13 11:42:22;;;;;;;9.47;1.90;;;;;;;;;;5029693;28;20174;-75
2023/01/13 11:44:54;;;;;;;6.87;1.60;;;;;;;;;;5023400;28;20249;-75
2023/01/13 11:47:23;;;;;;;6.60;1.90;;;;;;;;;;5023614;28;20677;-75
2023/01/13 11:49:49;;;;;;;7.13;1.70;;;;;;;;;;5028784;28;20277;-75
2023/01/13 11:52:15;;;;;;;7.20;1.50;;;;;;;;;;5012384;28;20194;-75
2023/01/13 11:54:47;;;;;;;5.57;1.47;;;;;;;;;;5021719;28;20179;-75
2023/01/13 11:57:23;;;;;;;4.33;1.40;;;;;;;;;;5021579;28;20214;-76
2023/01/13 11:59:54;;;;;;;6.07;1.80;;;;;;;;;;5027423;28;20649;-75
2023/01/13 12:02:26;;;;;;;7.20;1.60;;;;;;;;;;5028877;28;20175;-75
2023/01/13 12:04:59;;;;;;;5.23;1.50;;;;;;;;;;5029416;28;20221;-75
2023/01/13 12:07:28;;;;;;;6.07;1.57;;;;;;;;;;5027791;28;20627;-75
2023/01/13 12:10:00;;;;;;;7.60;1.43;;;;;;;;;;5029525;28;20210;-75
2023/01/13 12:12:50;;;;;;;5.13;1.30;;;;;;;;;;5028441;28;20194;-75
2023/01/13 12:15:24;;;;;;;3.47;1.30;;;;;;;;;;5013613;28;20209;-75
2023/01/13 12:17:50;;;;;;;6.97;1.90;;;;;;;;;;5028906;28;20212;-75
2023/01/13 12:20:23;;;;;;;5.47;1.90;;;;;;;;;;5029732;28;20252;-75
2023/01/13 12:22:52;;;;;;;6.57;1.70;;;;;;;;;;5022955;28;20183;-75
2023/01/13 12:25:26;;;;;;;8.23;1.70;;;;;;;;;;5029139;28;20241;-75
2023/01/13 12:27:57;;;;;;;7.33;1.80;;;;;;;;;;5028294;28;20265;-75
2023/01/13 12:30:23;;;;;;;7.73;1.80;;;;;;;;;;5029549;28;20183;-75
2023/01/13 12:32:50;;;;;;;6.13;1.60;;;;;;;;;;5029314;28;20195;-75
2023/01/13 12:35:26;;;;;;;7.37;1.80;;;;;;;;;;5029585;28;20226;-75
2023/01/13 12:38:11;;;;;;;4.53;1.37;;;;;;;;;;5026052;28;20662;-75
2023/01/13 12:40:56;;;;;;;7.07;1.73;;;;;;;;;;5009685;28;20766;-75
2023/01/13 12:46:20;;;;;;;7.47;2.03;;;;;;;;;;5028049;28;20222;-75
2023/01/13 12:48:56;;;;;;;5.83;1.80;;;;;;;;;;5027988;28;20256;-75
2023/01/13 12:51:22;;;;;;;6.13;1.60;;;;;;;;;;5026564;28;20186;-75
2023/01/13 12:53:48;;;;;;;6.57;1.70;;;;;;;;;;5029227;28;20179;-75
2023/01/13 12:56:20;;;;;;;6.00;1.60;;;;;;;;;;5025647;28;20206;-75
2023/01/13 12:58:46;;;;;;;7.97;1.83;;;;;;;;;;5029354;28;20194;-75
2023/01/13 13:01:13;;;;;;;6.07;1.83;;;;;;;;;;5026763;28;20177;-75
2023/01/13 13:03:40;;;;;;;7.93;2.67;;;;;;;;;;5027377;28;20188;-75
2023/01/13 13:06:06;;;;;;;8.13;1.80;;;;;;;;;;5024872;28;20198;-76
2023/01/13 13:08:45;;;;;;;8.60;1.70;;;;;;;;;;5004001;28;20670;-75
2023/01/13 13:13:16;;;;;;;7.50;1.77;;;;;;;;;;5029247;28;20686;-76
2023/01/13 13:14:13;;;;;;;4.80;1.43;;;;;;;;;;5038868;28;20237;-76
2023/01/13 13:16:48;;;;;;;5.63;1.50;;;;;;;;;;5048383;28;20630;-76
2023/01/13 13:19:17;;;;;;;7.17;1.90;;;;;;;;;;5020814;28;20200;-77
2023/01/13 13:22:02;;;;;;;6.37;1.60;;;;;;;;;;5027756;28;20201;-76
2023/01/13 13:24:28;;;;;;;5.50;1.60;;;;;;;;;;5009124;28;20170;-76
2023/01/13 13:26:54;;;;;;;6.63;1.50;;;;;;;;;;5018057;28;20206;-77
2023/01/13 13:29:20;;;;;;;4.60;1.77;;;;;;;;;;5024966;28;20571;-76
2023/01/13 13:31:55;;;;;;;6.33;2.00;;;;;;;;;;5029804;28;20277;-75
2023/01/13 13:34:25;;;;;;;6.50;2.03;;;;;;;;;;5037006;28;20196;-76
2023/01/13 13:37:10;;;;;;;5.07;1.63;;;;;;;;;;5022204;28;20218;-77
2023/01/13 13:48:38;;;;;;;6.93;1.63;;;;;;;;;;5020541;28;20198;-74
2023/01/13 13:51:21;;;;;;;10.97;3.17;;;;;;;;;;4964142;28;20197;-74
2023/01/13 13:53:47;;;;;;;5.47;1.80;;;;;;;;;;5021840;28;20194;-75
2023/01/13 13:56:20;;;;;;;4.97;1.50;;;;;;;;;;5022518;28;20211;-74
2023/01/13 13:58:46;;;;;;;7.87;1.63;;;;;;;;;;5021872;28;20180;-74
2023/01/13 14:01:24;;;;;;;6.90;1.67;;;;;;;;;;5022567;28;20309;-74
2023/01/13 14:04:14;;;;;;;4.27;1.53;;;;;;;;;;5023582;28;20186;-74
2023/01/13 14:06:51;;;;;;;2.13;0.80;;;;;;;;;;5018124;28;20230;-74
2023/01/13 14:09:18;;;;;;;2.97;1.10;;;;;;;;;;5025908;28;20179;-74
2023/01/13 14:11:53;;;;;;;3.47;0.90;;;;;;;;;;5015478;28;20186;-74
2023/01/13 14:14:20;;;;;;;3.40;0.90;;;;;;;;;;5021344;28;20182;-74
2023/01/13 14:16:46;;;;;;;9.00;1.47;;;;;;;;;;5020090;28;20293;-74
2023/01/13 14:19:22;;;;;;;3.57;1.33;;;;;;;;;;5010322;28;20635;-74
2023/01/13 14:21:48;;;;;;;5.20;1.60;;;;;;;;;;5023883;28;20273;-74
2023/01/13 14:24:16;;;;;;;5.97;1.57;;;;;;;;;;5022912;28;20171;-74
2023/01/13 14:26:42;;;;;;;5.07;1.73;;;;;;;;;;5021079;28;20203;-74
2023/01/13 14:29:13;;;;;;;5.80;1.43;;;;;;;;;;5022395;28;20186;-74
2023/01/13 14:31:39;;;;;;;2.73;1.20;;;;;;;;;;5021738;28;20194;-74
2023/01/13 14:34:07;;;;;;;5.10;1.47;;;;;;;;;;5026172;28;20650;-74
2023/01/13 14:36:33;;;;;;;3.17;1.10;;;;;;;;;;4989603;28;20238;-74
2023/01/13 14:39:02;;;;;;;4.87;1.33;;;;;;;;;;5014185;28;20194;-74
2023/01/13 14:41:30;;;;;;;4.73;1.30;;;;;;;;;;5016013;28;20266;-74
2023/01/13 14:44:01;;;;;;;3.27;1.43;;;;;;;;;;5025375;28;20178;-74
2023/01/13 14:46:41;;;;;;;7.33;1.43;;;;;;;;;;5029651;28;20308;-74
2023/01/13 14:49:24;;;;;;;3.33;1.40;;;;;;;;;;5021320;28;20551;-74
2023/01/13 14:51:50;;;;;;;9.80;3.60;;;;;;;;;;5024190;28;20191;-74
2023/01/13 14:54:35;;;;;;;4.87;2.10;;;;;;;;;;5027117;28;20279;-74
2023/01/13 14:57:20;;;;;;;3.60;1.37;;;;;;;;;;5025705;28;20304;-74
2023/01/13 14:59:50;;;;;;;5.20;1.40;;;;;;;;;;5027657;28;20171;-74
2023/01/13 15:02:23;;;;;;;7.90;1.43;;;;;;;;;;5025657;28;20248;-74
2023/01/13 15:04:52;;;;;;;6.33;1.57;;;;;;;;;;5018445;28;20199;-74
2023/01/13 15:07:29;;;;;;;11.13;5.13;;;;;;;;;;5019662;28;20194;-75
2023/01/13 15:09:57;;;;;;;6.77;1.70;;;;;;;;;;5023686;28;20190;-74
2023/01/13 15:12:34;;;;;;;4.87;2.20;;;;;;;;;;5023997;28;20560;-74
2023/01/13 15:15:02;;;;;;;8.10;3.17;;;;;;;;;;5023468;28;20598;-78
2023/01/13 15:17:29;;;;;;;5.87;1.80;;;;;;;;;;5025642;28;20228;-74
2023/01/13 15:19:55;;;;;;;6.20;2.03;;;;;;;;;;5021054;28;20685;-74
2023/01/13 15:22:21;;;;;;;4.97;1.73;;;;;;;;;;5024321;28;20194;-74
2023/01/13 15:24:47;;;;;;;9.10;2.57;;;;;;;;;;5036779;28;20177;-74
2023/01/13 15:27:17;;;;;;;5.90;1.77;;;;;;;;;;5039910;28;20194;-74
2023/01/13 15:29:43;;;;;;;4.23;1.53;;;;;;;;;;5018632;28;20191;-73
2023/01/13 15:32:16;;;;;;;4.07;1.70;;;;;;;;;;5022070;28;20268;-73
2023/01/13 15:34:43;;;;;;;6.20;1.70;;;;;;;;;;5026303;28;20264;-73
2023/01/13 15:37:10;;;;;;;7.37;2.33;;;;;;;;;;5024456;28;20207;-74
2023/01/13 15:39:36;;;;;;;4.90;1.60;;;;;;;;;;5017220;28;20674;-74
2023/01/13 15:47:32;;;;;;;5.03;1.87;;;;;;;;;;5029622;28;20183;-74
2023/01/13 15:49:58;;;;;;;6.63;2.20;;;;;;;;;;5029551;28;20198;-74
2023/01/13 15:52:25;;;;;;;6.63;1.93;;;;;;;;;;5028462;28;20179;-74
2023/01/13 15:54:52;;;;;;;9.10;2.53;;;;;;;;;;5028562;28;20182;-74
2023/01/13 15:57:25;;;;;;;5.82;2.00;;;;;;;;;;5018672;28;21113;-74